Time;durP1;ratioP1;P1;durP2;ratioP2;P2;SDS_P1;SDS_P2;PMS_P1;PMS_P2;Temp;Humidity;BMP_temperature;BMP_pressure;BME280_temperature;BME280_humidity;BME280_pressure;Samples;Min_cycle;Max_cycle;Signal;HPM_P1;HPM_P2
2021/03/03 00:01:18;;;;;;;23.83;14.60;;;;;;;1.85;79.28;99622.56;4953595;29;20035;-76
2021/03/03 00:03:43;;;;;;;;;;;;;;;1.71;80.14;99626.22;4955032;28;20019;-79
2021/03/03 00:06:08;;;;;;;25.85;13.00;;;;;;;1.57;80.19;99614.50;4955119;28;19957;-80
2021/03/03 00:08:34;;;;;;;;;;;;;;;1.58;80.29;99618.03;4956581;28;20038;-79
2021/03/03 00:10:59;;;;;;;22.98;13.60;;;;;;;1.73;79.49;99604.44;4939469;29;20282;-80
2021/03/03 00:13:24;;;;;;;;;;;;;;;1.70;80.16;99613.75;4954190;28;20046;-78
2021/03/03 00:15:50;;;;;;;33.30;14.18;;;;;;;1.56;80.19;99612.03;4935976;29;19922;-80
2021/03/03 00:18:15;;;;;;;;;;;;;;;1.59;80.33;99612.47;4953638;28;20031;-77
2021/03/03 00:20:40;;;;;;;29.77;15.88;;;;;;;1.69;79.90;99604.03;4953578;28;19986;-78
2021/03/03 00:23:06;;;;;;;;;;;;;;;1.57;80.26;99610.97;4936169;28;20023;-81
2021/03/03 00:25:31;;;;;;;28.83;15.02;;;;;;;1.67;80.03;99613.31;4953448;28;20005;-80
2021/03/03 00:27:56;;;;;;;;;;;;;;;1.63;80.52;99609.38;4936249;29;20058;-79
2021/03/03 00:30:22;;;;;;;32.78;15.45;;;;;;;1.67;80.37;99603.38;4935883;28;19915;-76
2021/03/03 00:32:48;;;;;;;34.28;17.30;;;;;;;1.74;80.23;99606.94;4953253;28;20097;-79
2021/03/03 00:35:13;;;;;;;;;;;;;;;1.71;79.98;99599.25;4953744;29;20039;-79
2021/03/03 00:37:38;;;;;;;29.65;14.65;;;;;;;1.71;79.80;99599.25;4952802;28;20276;-77
2021/03/03 00:40:05;;;;;;;28.75;17.70;;;;;;;1.69;79.97;99603.19;4953149;29;20759;-78
2021/03/03 00:42:31;;;;;;;31.77;18.15;;;;;;;1.47;80.79;99591.63;4952820;29;20031;-76
2021/03/03 00:44:56;;;;;;;27.00;16.50;;;;;;;1.38;81.18;99592.81;4952824;28;20498;-77
2021/03/03 00:47:22;;;;;;;29.52;17.83;;;;;;;1.21;81.88;99596.81;4952768;28;20488;-83
2021/03/03 00:49:47;;;;;;;30.05;15.82;;;;;;;1.33;81.71;99595.25;4935572;29;20031;-81
2021/03/03 00:52:12;;;;;;;;;;;;;;;1.20;82.32;99601.34;4936294;28;20046;-79
2021/03/03 00:54:37;;;;;;;25.83;14.63;;;;;;;1.39;81.64;99599.84;4953571;28;19914;-78
2021/03/03 00:57:03;;;;;;;;;;;;;;;1.45;80.94;99599.91;4937334;29;20093;-77
2021/03/03 00:59:28;;;;;;;22.75;13.05;;;;;;;1.34;81.09;99594.22;4954875;28;19915;-76
2021/03/03 01:01:53;;;;;;;;;;;;;;;1.51;80.58;99591.03;4955080;28;20047;-77
2021/03/03 01:04:19;;;;;;;31.77;14.35;;;;;;;1.43;80.91;99596.56;4938656;29;20036;-82
2021/03/03 01:06:44;;;;;;;26.58;14.02;;;;;;;1.30;81.66;99598.31;4959518;28;20020;-85
2021/03/03 01:09:10;;;;;;;31.13;15.32;;;;;;;1.31;81.43;99587.38;4960535;28;20496;-82
2021/03/03 01:11:35;;;;;;;30.25;15.05;;;;;;;0.95;81.80;99567.78;4955940;28;20511;-83
2021/03/03 01:14:00;;;;;;;;;;;;;;;1.23;81.99;99592.03;4958148;28;20038;-85
2021/03/03 01:16:26;;;;;;;25.33;14.43;;;;;;;1.17;82.33;99593.66;4956526;28;19911;-81
2021/03/03 01:18:51;;;;;;;23.05;12.98;;;;;;;1.12;82.08;99590.72;4936187;28;20032;-84
2021/03/03 01:21:17;;;;;;;25.05;13.48;;;;;;;1.08;82.36;99595.69;4935755;29;20050;-81
2021/03/03 01:23:42;;;;;;;;;;;;;;;1.10;82.30;99587.38;4953206;28;20027;-78
2021/03/03 01:26:08;;;;;;;20.80;12.82;;;;;;;1.19;82.07;99590.78;4953116;28;20387;-84
2021/03/03 01:28:33;;;;;;;22.95;13.10;;;;;;;1.17;82.18;99585.59;4935569;28;20507;-77
2021/03/03 01:30:58;;;;;;;;;;;;;;;1.24;81.65;99586.47;4952059;28;20111;-75
2021/03/03 01:33:26;;;;;;;21.98;11.98;;;;;;;1.14;81.95;99585.13;4953053;28;20379;-76
2021/03/03 01:35:51;;;;;;;23.15;12.65;;;;;;;1.02;82.60;99588.38;4939342;29;20027;-78
2021/03/03 01:38:17;;;;;;;25.40;13.90;;;;;;;1.05;82.29;99582.59;4955669;29;20035;-76
2021/03/03 01:40:42;;;;;;;24.00;14.30;;;;;;;1.17;81.83;99584.75;4955916;28;20038;-75
2021/03/03 01:43:07;;;;;;;27.10;14.25;;;;;;;1.09;81.86;99577.66;4955529;28;20023;-76
2021/03/03 01:45:33;;;;;;;27.83;14.18;;;;;;;1.02;82.21;99577.59;4955725;28;20400;-75
2021/03/03 01:47:58;;;;;;;25.63;14.93;;;;;;;1.11;82.14;99586.38;4955805;28;20027;-76
2021/03/03 01:50:24;;;;;;;28.52;13.65;;;;;;;0.86;82.65;99572.47;4955396;28;20030;-75
2021/03/03 01:52:49;;;;;;;26.08;14.68;;;;;;;0.99;82.25;99579.84;4955785;28;20035;-76
2021/03/03 01:55:14;;;;;;;;;;;;;;;0.86;82.68;99577.03;4955552;29;20028;-75
2021/03/03 01:57:40;;;;;;;23.10;12.88;;;;;;;0.70;83.11;99566.50;4955964;28;19922;-76
2021/03/03 02:00:06;;;;;;;23.55;13.43;;;;;;;0.64;83.62;99567.28;4955681;28;20576;-75
2021/03/03 02:02:32;;;;;;;27.52;14.50;;;;;;;0.76;83.07;99571.97;4955244;28;20393;-77
2021/03/03 02:04:58;;;;;;;26.88;14.15;;;;;;;0.74;82.97;99573.19;4937891;28;20031;-77
2021/03/03 02:07:45;;;;;;;27.77;15.73;;;;;;;0.69;83.20;99573.75;4954614;28;20027;-79
2021/03/03 02:10:48;;;;;;;25.08;13.52;;;;;;;0.65;83.36;99567.09;4955654;28;20031;-76
2021/03/03 02:13:30;;;;;;;25.40;15.02;;;;;;;0.44;84.01;99561.69;4955440;28;20039;-75
2021/03/03 02:15:58;;;;;;;32.33;14.90;;;;;;;0.36;84.68;99565.34;4938301;29;20031;-74
2021/03/03 02:18:25;;;;;;;28.48;15.88;;;;;;;0.45;84.36;99560.66;4955614;29;20086;-75
2021/03/03 02:20:57;;;;;;;27.27;14.95;;;;;;;0.38;84.34;99557.91;4938422;29;20023;-75
2021/03/03 02:23:35;;;;;;;28.52;14.98;;;;;;;0.35;84.40;99557.44;4955586;28;20423;-75
2021/03/03 02:26:03;;;;;;;28.17;14.23;;;;;;;0.45;83.96;99548.03;4938909;29;20031;-74
2021/03/03 02:28:29;;;;;;;30.17;15.25;;;;;;;0.57;83.61;99550.22;4956339;28;20106;-75
2021/03/03 02:30:55;;;;;;;35.00;15.05;;;;;;;0.54;83.69;99546.91;4938434;29;20088;-75
2021/03/03 02:33:22;;;;;;;28.52;14.43;;;;;;;0.56;83.31;99552.09;4955558;28;20043;-80
2021/03/03 02:35:48;;;;;;;26.60;14.13;;;;;;;0.58;83.20;99544.66;4954988;28;20118;-77
2021/03/03 02:38:14;;;;;;;30.55;16.48;;;;;;;0.51;83.50;99546.44;4955408;28;20118;-78
2021/03/03 02:40:42;;;;;;;31.40;15.82;;;;;;;0.56;83.27;99551.25;4955085;28;20035;-79
2021/03/03 02:43:12;;;;;;;27.73;14.98;;;;;;;0.47;83.20;99539.78;4954781;28;20019;-77
2021/03/03 02:45:39;;;;;;;29.08;14.10;;;;;;;0.31;84.12;99551.63;4950270;28;20040;-82
2021/03/03 02:48:07;;;;;;;24.38;13.70;;;;;;;0.52;83.70;99534.66;4944956;28;20381;-81
2021/03/03 02:50:33;;;;;;;27.05;14.48;;;;;;;0.44;83.96;99540.16;4955864;28;20034;-82
2021/03/03 02:52:58;;;;;;;25.77;14.48;;;;;;;0.30;83.95;99541.06;4939143;29;20090;-86
2021/03/03 02:55:28;;;;;;;;;;;;;;;0.13;85.12;99539.59;4939764;29;20031;-83
2021/03/03 02:57:55;;;;;;;24.17;14.57;;;;;;;0.04;85.75;99543.44;4940116;29;19981;-86
2021/03/03 03:00:37;;;;;;;31.67;15.60;;;;;;;-0.12;86.38;99536.41;4944584;28;20373;-85
2021/03/03 03:03:12;;;;;;;31.17;14.82;;;;;;;-0.15;86.55;99534.94;4945406;29;20264;-87
2021/03/03 03:05:42;;;;;;;27.42;13.90;;;;;;;-0.26;86.16;99530.06;4957184;28;20066;-80
2021/03/03 03:08:11;;;;;;;25.17;15.57;;;;;;;-0.22;86.40;99527.81;4956412;28;20027;-83
2021/03/03 03:10:37;;;;;;;26.83;12.98;;;;;;;-0.26;86.81;99534.59;4958302;29;20035;-82
2021/03/03 03:13:06;;;;;;;32.30;14.35;;;;;;;-0.17;86.67;99526.22;4960790;28;20034;-80
2021/03/03 03:15:33;;;;;;;27.00;13.43;;;;;;;-0.09;86.45;99528.81;4938464;29;20027;-83
2021/03/03 03:18:04;;;;;;;25.33;13.10;;;;;;;-0.13;86.02;99526.69;4937750;28;20030;-86
2021/03/03 03:20:32;;;;;;;25.80;13.77;;;;;;;-0.05;86.05;99535.47;4955088;28;20023;-82
2021/03/03 03:23:00;;;;;;;19.40;12.82;;;;;;;0.04;85.56;99532.66;4954935;29;20026;-87
2021/03/03 03:25:28;;;;;;;26.13;13.25;;;;;;;0.04;85.63;99532.66;4938001;28;20035;-84
2021/03/03 03:27:57;;;;;;;23.30;12.48;;;;;;;-0.13;85.52;99527.53;4955673;29;20035;-85
2021/03/03 03:30:24;;;;;;;28.92;13.55;;;;;;;-0.17;86.25;99531.63;4937462;28;20077;-82
2021/03/03 03:47:33;;;;;;;20.00;12.98;;;;;;;-0.02;85.15;99532.41;4931424;29;20062;-79
2021/03/03 03:50:48;;;;;;;19.23;12.13;;;;;;;-0.22;86.36;99531.31;4915908;29;20429;-86
2021/03/03 03:54:03;;;;;;;19.35;11.43;;;;;;;-0.14;86.32;99528.53;4897050;29;20113;-86
2021/03/03 03:57:19;;;;;;;21.48;12.90;;;;;;;-0.10;86.12;99537.91;4896685;29;20036;-83
2021/03/03 04:00:35;;;;;;;19.98;12.20;;;;;;;-0.19;86.34;99536.31;4913175;29;20042;-80
2021/03/03 04:03:50;;;;;;;19.80;10.20;;;;;;;-0.25;86.90;99529.00;4917556;29;20071;-81
2021/03/03 04:07:05;;;;;;;20.05;12.55;;;;;;;-0.26;86.94;99534.59;4918986;29;20525;-80
2021/03/03 04:10:22;;;;;;;21.63;12.70;;;;;;;-0.24;86.99;99541.44;4911938;29;20035;-80
2021/03/03 04:12:48;;;;;;;24.25;12.43;;;;;;;-0.09;86.26;99534.19;5132096;23;20572;-85
2021/03/03 04:15:13;;;;;;;21.83;11.50;;;;;;;-0.11;85.94;99533.53;4932813;29;20110;-82
2021/03/03 04:17:40;;;;;;;23.23;13.18;;;;;;;-0.31;86.75;99537.81;4924201;29;20070;-83
2021/03/03 04:20:08;;;;;;;21.73;12.95;;;;;;;-0.34;86.74;99530.13;4945474;29;20551;-85
2021/03/03 04:22:34;;;;;;;22.55;11.82;;;;;;;-0.40;86.84;99532.72;4928244;28;20035;-82
2021/03/03 04:25:00;;;;;;;23.40;14.40;;;;;;;-0.45;87.14;99535.16;4925410;29;20038;-85
2021/03/03 04:27:25;;;;;;;25.85;13.23;;;;;;;-0.65;88.14;99532.19;4916503;29;20068;-82
2021/03/03 04:29:51;;;;;;;23.35;13.20;;;;;;;-0.62;88.31;99537.19;4935095;29;20040;-82
2021/03/03 04:32:16;;;;;;;24.77;12.80;;;;;;;-0.55;88.04;99533.59;4933973;29;20365;-83
2021/03/03 04:34:41;;;;;;;20.50;12.65;;;;;;;-0.29;87.81;99534.97;4916924;29;20120;-84
2021/03/03 04:37:07;;;;;;;27.58;14.05;;;;;;;-0.48;87.53;99520.25;4922129;29;20027;-82
2021/03/03 04:39:32;;;;;;;;;;;;;;;-0.59;88.28;99537.66;4935359;29;20032;-83
2021/03/03 04:41:57;;;;;;;21.75;12.27;;;;;;;-0.75;88.66;99521.72;4934452;29;19984;-81
2021/03/03 04:44:23;;;;;;;26.83;12.88;;;;;;;-0.87;89.26;99522.34;4936227;29;20074;-82
2021/03/03 04:46:48;;;;;;;26.88;13.73;;;;;;;-0.72;88.99;99517.84;4933895;29;20485;-84
2021/03/03 04:49:14;;;;;;;25.67;13.48;;;;;;;-0.47;88.08;99516.50;4934767;29;20100;-83
2021/03/03 04:51:39;;;;;;;29.58;14.13;;;;;;;-0.53;87.93;99517.25;4935808;29;20027;-83
2021/03/03 04:54:05;;;;;;;21.00;12.98;;;;;;;-0.60;88.44;99524.41;4926934;29;20079;-84
2021/03/03 04:56:30;;;;;;;;;;;;;;;-0.57;88.43;99527.56;4916325;29;20032;-82
2021/03/03 04:58:56;;;;;;;24.55;12.88;;;;;;;-0.58;88.26;99519.69;4916504;29;19922;-80
2021/03/03 05:01:21;;;;;;;;;;;;;;;-0.53;88.21;99516.44;4915545;29;20119;-83
2021/03/03 05:03:46;;;;;;;25.95;13.52;;;;;;;-0.58;88.06;99517.00;4918263;29;19915;-86
2021/03/03 05:06:12;;;;;;;;;;;;;;;-0.65;88.73;99529.50;4918747;29;20043;-82
2021/03/03 05:08:37;;;;;;;22.33;11.98;;;;;;;-0.65;88.38;99516.06;4915277;29;19919;-81
2021/03/03 05:11:03;;;;;;;24.90;13.07;;;;;;;-0.61;88.22;99520.06;4933514;29;20032;-85
2021/03/03 05:13:28;;;;;;;;;;;;;;;-0.61;87.72;99523.59;4921009;29;20052;-82
2021/03/03 05:15:53;;;;;;;21.80;11.73;;;;;;;-0.81;88.18;99518.91;4921566;29;20316;-85
2021/03/03 05:18:19;;;;;;;22.95;12.95;;;;;;;-0.94;88.26;99502.63;4927308;29;20115;-80
2021/03/03 05:20:44;;;;;;;24.38;13.60;;;;;;;-0.60;87.95;99519.03;4920446;29;20038;-85
2021/03/03 05:23:10;;;;;;;;;;;;;;;-0.60;87.94;99519.03;4920037;29;20023;-80
2021/03/03 05:25:35;;;;;;;25.15;13.13;;;;;;;-0.68;87.89;99522.66;4924330;29;19970;-84
2021/03/03 05:28:01;;;;;;;26.83;14.95;;;;;;;-0.64;87.59;99512.38;4921443;29;20044;-84
2021/03/03 05:30:27;;;;;;;28.40;13.57;;;;;;;-0.58;87.78;99519.69;4920977;29;20036;-83
2021/03/03 05:32:56;;;;;;;22.33;13.48;;;;;;;-0.58;87.83;99511.63;4919444;29;20040;-86
2021/03/03 05:35:22;;;;;;;26.85;13.88;;;;;;;-0.56;87.42;99512.25;4938679;29;20031;-82
2021/03/03 05:37:47;;;;;;;23.98;13.73;;;;;;;-0.46;86.95;99518.19;4931952;29;20024;-80
2021/03/03 05:40:14;;;;;;;27.88;14.57;;;;;;;-0.65;87.43;99508.84;4940739;29;20091;-83
2021/03/03 05:42:40;;;;;;;18.42;11.73;;;;;;;-0.63;86.99;99503.31;4921360;29;20028;-86
2021/03/03 05:45:07;;;;;;;28.02;13.15;;;;;;;-0.67;87.07;99510.06;4937845;29;20503;-83
2021/03/03 05:47:35;;;;;;;25.60;11.98;;;;;;;-0.63;87.03;99508.66;4918896;29;20044;-84
2021/03/03 05:50:05;;;;;;;22.75;13.07;;;;;;;-0.50;86.70;99506.13;4922402;29;20024;-86
2021/03/03 05:52:32;;;;;;;24.48;12.65;;;;;;;-0.62;87.34;99502.25;4922752;29;20028;-82
2021/03/03 05:54:59;;;;;;;23.40;14.15;;;;;;;-0.62;87.85;99513.84;4928155;29;20020;-84
2021/03/03 05:57:25;;;;;;;32.75;17.60;;;;;;;-0.62;87.54;99507.63;4929024;29;20039;-81
2021/03/03 05:59:51;;;;;;;27.23;16.27;;;;;;;-0.61;87.59;99514.69;4929909;29;20028;-84
2021/03/03 06:02:18;;;;;;;26.48;13.65;;;;;;;-0.44;87.22;99505.41;4933423;29;20034;-86
2021/03/03 06:04:43;;;;;;;28.30;14.70;;;;;;;-0.18;86.56;99513.81;4933570;29;20422;-83
2021/03/03 06:07:10;;;;;;;28.20;12.00;;;;;;;-0.02;86.25;99518.97;4941357;29;20118;-88
2021/03/03 06:09:36;;;;;;;25.38;14.70;;;;;;;-0.01;85.17;99514.44;4939009;29;20034;-84
2021/03/03 06:12:04;;;;;;;24.67;12.65;;;;;;;0.17;84.94;99509.47;4930335;29;20733;-85
2021/03/03 06:14:30;;;;;;;23.15;12.98;;;;;;;0.23;84.08;99506.00;4928646;29;20496;-82
2021/03/03 06:16:55;;;;;;;26.27;14.10;;;;;;;0.11;84.02;99506.69;4942361;29;20032;-78
2021/03/03 06:19:20;;;;;;;;;;;;;;;0.08;84.15;99515.13;4945868;29;20043;-81
2021/03/03 06:21:46;;;;;;;23.20;13.35;;;;;;;0.08;83.90;99513.28;4936506;29;19986;-83
2021/03/03 06:24:11;;;;;;;;;;;;;;;0.09;84.04;99511.44;4927548;29;20090;-83
2021/03/03 06:26:57;;;;;;;23.85;12.82;;;;;;;0.21;84.40;99515.28;4936175;29;20013;-85
2021/03/03 06:29:22;;;;;;;24.23;13.68;;;;;;;0.28;84.12;99513.50;4931814;29;20027;-84
2021/03/03 06:31:49;;;;;;;25.25;14.52;;;;;;;0.25;83.77;99503.94;4931402;29;20024;-76
2021/03/03 06:34:20;;;;;;;33.95;18.20;;;;;;;0.46;83.29;99513.91;4921760;29;20026;-75
2021/03/03 06:36:48;;;;;;;22.55;13.80;;;;;;;0.85;82.41;99511.56;4928721;29;20035;-84
2021/03/03 06:39:25;;;;;;;23.73;14.13;;;;;;;1.13;81.58;99519.63;4924708;29;20108;-75
2021/03/03 06:41:54;;;;;;;31.05;14.50;;;;;;;0.72;81.94;99495.28;4924297;29;20036;-91
2021/03/03 06:44:21;;;;;;;27.10;14.77;;;;;;;0.78;82.55;99516.06;4930305;29;20091;-85
2021/03/03 06:47:07;;;;;;;20.15;14.25;;;;;;;0.93;82.10;99530.28;4927980;29;20086;-86
2021/03/03 06:49:32;;;;;;;25.33;13.60;;;;;;;0.80;82.31;99522.09;4950852;28;20047;-84
2021/03/03 06:51:58;;;;;;;25.92;13.50;;;;;;;0.99;81.68;99502.56;4941107;29;20036;-87
2021/03/03 06:54:24;;;;;;;;;;;;;;;0.89;81.72;99517.38;4932004;29;20074;-88
2021/03/03 06:56:51;;;;;;;24.80;13.18;;;;;;;0.96;81.93;99523.66;4930164;29;20368;-84
2021/03/03 06:59:16;;;;;;;20.58;11.75;;;;;;;0.97;81.77;99523.44;4925162;29;20034;-85
2021/03/03 07:01:43;;;;;;;19.85;12.45;;;;;;;1.12;81.37;99522.53;4922758;29;20036;-84
2021/03/03 07:04:22;;;;;;;28.77;15.48;;;;;;;1.22;80.69;99518.47;4928679;29;20485;-86
2021/03/03 07:06:49;;;;;;;24.33;14.48;;;;;;;1.29;80.14;99513.13;4925954;29;20039;-82
2021/03/03 07:09:17;;;;;;;32.88;14.00;;;;;;;1.60;79.06;99514.34;4928295;29;20027;-81
2021/03/03 07:11:43;;;;;;;24.80;14.30;;;;;;;1.69;78.77;99509.63;4926739;29;20027;-84
2021/03/03 07:14:16;;;;;;;27.80;14.63;;;;;;;1.92;78.24;99514.69;4926775;29;20047;-86
2021/03/03 07:17:19;;;;;;;28.30;14.75;;;;;;;2.68;75.55;99513.44;4929143;29;20084;-87
2021/03/03 07:19:52;;;;;;;26.05;14.00;;;;;;;3.69;71.19;99504.00;4928493;29;20023;-85
2021/03/03 07:22:32;;;;;;;26.42;14.30;;;;;;;4.25;68.76;99507.72;4923923;29;20020;-82
2021/03/03 07:25:05;;;;;;;24.90;15.20;;;;;;;4.61;67.33;99500.81;4924275;29;20032;-87
2021/03/03 07:27:31;;;;;;;27.00;16.15;;;;;;;4.77;66.24;99503.84;4932731;29;20015;-85
2021/03/03 07:30:00;;;;;;;27.85;14.98;;;;;;;5.38;64.87;99494.97;4943522;28;20047;-88
2021/03/03 07:32:26;;;;;;;18.60;13.40;;;;;;;5.59;63.70;99501.84;4928736;29;20116;-86
2021/03/03 07:34:54;;;;;;;26.70;15.60;;;;;;;5.91;61.94;99498.81;4936259;29;20032;-86
2021/03/03 07:37:21;;;;;;;21.33;15.10;;;;;;;5.84;61.56;99505.34;4934176;29;20056;-90
2021/03/03 07:40:00;;;;;;;23.73;14.02;;;;;;;5.45;62.89;99509.28;4926369;29;20092;-86
2021/03/03 07:42:28;;;;;;;30.88;16.13;;;;;;;5.36;63.98;99487.06;4925952;29;20027;-89
2021/03/03 07:44:56;;;;;;;32.17;15.90;;;;;;;4.85;64.64;99502.75;4933038;29;20028;-89
2021/03/03 07:47:28;;;;;;;31.35;15.88;;;;;;;4.31;67.22;99501.44;4931536;29;20028;-84
2021/03/03 07:50:03;;;;;;;24.90;15.48;;;;;;;4.93;65.47;99490.78;4926894;29;20028;-87
2021/03/03 07:52:29;;;;;;;22.98;14.98;;;;;;;5.55;63.45;99479.75;4920437;29;20052;-86
2021/03/03 07:54:57;;;;;;;23.85;14.68;;;;;;;6.25;60.92;99483.75;4929108;28;20027;-85
2021/03/03 07:57:23;;;;;;;26.98;15.02;;;;;;;7.77;55.89;99484.78;4945104;28;20032;-83
2021/03/03 07:59:52;;;;;;;26.08;14.80;;;;;;;7.89;54.36;99475.50;4934119;29;20027;-80
2021/03/03 08:02:17;;;;;;;24.42;15.27;;;;;;;9.67;52.66;99486.63;4935898;29;20596;-89
2021/03/03 08:04:43;;;;;;;24.67;15.13;;;;;;;8.45;52.38;99488.41;4934454;29;20174;-84
2021/03/03 08:07:15;;;;;;;22.25;14.75;;;;;;;8.37;53.32;99477.88;4938651;28;20111;-88
2021/03/03 08:10:19;;;;;;;30.52;15.40;;;;;;;9.65;50.23;99479.75;4936732;29;20032;-85
2021/03/03 08:13:04;;;;;;;19.05;13.35;;;;;;;9.01;51.15;99486.69;4935426;29;20027;-91
2021/03/03 08:15:31;;;;;;;25.13;15.60;;;;;;;8.76;51.24;99483.50;4940356;29;20043;-88
2021/03/03 08:18:14;;;;;;;29.90;16.73;;;;;;;8.98;50.71;99481.72;4948786;29;20484;-89
2021/03/03 08:20:48;;;;;;;26.23;14.35;;;;;;;10.31;48.23;99475.16;4942053;29;20035;-91
2021/03/03 08:23:32;;;;;;;21.05;14.85;;;;;;;11.40;45.61;99476.50;4941956;29;20028;-86
2021/03/03 08:26:01;;;;;;;24.52;15.45;;;;;;;10.28;46.98;99476.50;4942133;29;20035;-92
2021/03/03 08:28:36;;;;;;;23.75;15.27;;;;;;;9.72;48.33;99476.84;4945763;29;20056;-85
2021/03/03 08:31:05;;;;;;;22.27;14.35;;;;;;;9.62;49.19;99467.41;4921357;29;20052;-89
2021/03/03 08:33:31;;;;;;;25.75;16.42;;;;;;;10.61;46.80;99462.66;4921888;29;20024;-89
2021/03/03 08:35:57;;;;;;;22.70;14.80;;;;;;;11.08;46.08;99481.97;4921234;29;20032;-87
2021/03/03 08:38:22;;;;;;;22.83;14.50;;;;;;;10.46;46.71;99465.22;4919736;29;20115;-88
2021/03/03 08:40:48;;;;;;;29.23;16.63;;;;;;;10.37;46.91;99471.44;4919588;29;20036;-88
2021/03/03 08:43:43;;;;;;;23.02;16.40;;;;;;;10.51;46.67;99469.91;4921219;29;20481;-83
2021/03/03 08:46:21;;;;;;;21.90;14.52;;;;;;;11.06;46.17;99461.41;4918139;29;20539;-86
2021/03/03 08:48:52;;;;;;;20.88;14.73;;;;;;;10.86;45.67;99461.25;4929618;29;20136;-86
2021/03/03 08:51:24;;;;;;;21.83;14.75;;;;;;;10.86;45.85;99461.25;4924881;29;20039;-90
2021/03/03 08:53:55;;;;;;;23.52;15.55;;;;;;;11.09;45.50;99453.50;4927497;29;20037;-87
2021/03/03 08:56:52;;;;;;;22.63;14.20;;;;;;;12.05;44.32;99450.56;4928859;29;20032;-84
2021/03/03 08:59:36;;;;;;;23.23;13.95;;;;;;;12.45;41.71;99452.59;4932729;29;20078;-91
2021/03/03 09:02:15;;;;;;;26.63;14.13;;;;;;;11.68;42.68;99453.38;4928782;29;20039;-90
2021/03/03 09:04:56;;;;;;;27.92;13.35;;;;;;;12.84;40.63;99453.81;4934296;29;20036;-89
2021/03/03 09:07:26;;;;;;;25.25;15.85;;;;;;;11.58;43.73;99445.91;4928512;29;20028;-90
2021/03/03 09:09:55;;;;;;;27.25;14.45;;;;;;;12.20;42.60;99439.66;4926563;29;20115;-85
2021/03/03 09:12:31;;;;;;;29.65;15.45;;;;;;;12.40;41.86;99439.72;4923688;29;20039;-82
2021/03/03 09:14:59;;;;;;;26.30;15.77;;;;;;;12.65;41.07;99437.03;4926152;29;20094;-88
2021/03/03 09:17:27;;;;;;;25.33;16.70;;;;;;;13.00;40.46;99427.16;4926001;29;20091;-86
2021/03/03 09:19:54;;;;;;;24.83;15.35;;;;;;;12.32;41.60;99426.50;4928457;29;20075;-88
2021/03/03 09:22:21;;;;;;;29.38;16.33;;;;;;;11.90;42.92;99432.13;4928440;29;20024;-85
2021/03/03 09:24:48;;;;;;;29.50;15.68;;;;;;;12.72;41.64;99421.09;4933839;29;20030;-86
2021/03/03 09:27:14;;;;;;;24.02;15.25;;;;;;;13.37;40.06;99419.47;4964002;28;20024;-85
2021/03/03 09:29:40;;;;;;;26.25;15.07;;;;;;;12.86;40.93;99410.41;4970976;28;20027;-81
2021/03/03 09:32:12;;;;;;;23.02;15.98;;;;;;;12.98;40.85;99402.72;4965912;29;20023;-83
2021/03/03 09:34:49;;;;;;;19.00;13.55;;;;;;;15.25;36.89;99403.59;4962066;28;20500;-86
2021/03/03 09:37:15;;;;;;;21.60;13.20;;;;;;;15.21;36.47;99403.34;4962646;28;20035;-83
2021/03/03 09:39:41;;;;;;;26.10;15.63;;;;;;;14.46;37.38;99402.00;4966131;28;20047;-82
2021/03/03 09:42:10;;;;;;;21.58;13.68;;;;;;;13.26;39.67;99399.41;4968266;29;20031;-86
2021/03/03 09:44:48;;;;;;;31.70;16.15;;;;;;;13.58;39.33;99406.50;4969118;29;20464;-82
2021/03/03 09:47:30;;;;;;;29.13;15.82;;;;;;;13.51;39.28;99395.78;4983210;28;20054;-82
2021/03/03 09:49:57;;;;;;;23.00;14.63;;;;;;;14.13;38.39;99397.19;4967870;28;20046;-81
2021/03/03 09:52:25;;;;;;;26.15;15.45;;;;;;;15.23;36.17;99400.28;4973483;28;20034;-82
2021/03/03 09:54:51;;;;;;;23.70;12.98;;;;;;;15.58;34.84;99363.28;4961667;28;20510;-83
2021/03/03 09:57:22;;;;;;;22.27;15.13;;;;;;;14.89;36.36;99384.63;4965828;29;20098;-82
2021/03/03 09:59:53;;;;;;;30.48;13.75;;;;;;;15.41;35.64;99385.81;4970103;28;20038;-81
2021/03/03 10:02:22;;;;;;;25.73;14.80;;;;;;;15.23;35.88;99378.25;4959138;28;20031;-85
2021/03/03 10:04:48;;;;;;;28.25;15.43;;;;;;;14.65;37.18;99380.97;4984768;28;20018;-81
2021/03/03 10:07:22;;;;;;;27.33;14.95;;;;;;;13.86;37.94;99379.19;4971456;28;20055;-81
2021/03/03 10:09:51;;;;;;;20.27;13.20;;;;;;;15.90;34.49;99380.84;4968419;28;20137;-84
2021/03/03 10:12:20;;;;;;;22.10;14.13;;;;;;;15.69;34.76;99379.44;4970511;28;20034;-86
2021/03/03 10:14:54;;;;;;;21.77;14.70;;;;;;;15.14;35.34;99374.47;4975095;28;20066;-82
2021/03/03 10:17:31;;;;;;;22.90;13.63;;;;;;;17.52;31.92;99381.09;4966491;29;20027;-79
2021/03/03 10:19:57;;;;;;;22.80;12.68;;;;;;;15.99;33.27;99364.44;4927701;28;20755;-80
2021/03/03 10:22:22;;;;;;;21.52;15.63;;;;;;;15.05;35.69;99360.50;4927621;29;20054;-82
2021/03/03 10:25:05;;;;;;;31.48;13.63;;;;;;;14.96;36.37;99365.81;4932723;29;20032;-80
2021/03/03 10:27:39;;;;;;;20.17;12.75;;;;;;;15.24;36.01;99357.84;4941659;29;20104;-84
2021/03/03 10:30:27;;;;;;;22.13;14.50;;;;;;;17.11;32.94;99365.22;4936013;29;20032;-83
2021/03/03 10:32:53;;;;;;;20.00;12.68;;;;;;;17.63;31.49;99349.38;4926909;29;20036;-86
2021/03/03 10:35:22;;;;;;;22.00;13.35;;;;;;;16.60;32.80;99348.66;4926634;29;20029;-81
2021/03/03 10:37:47;;;;;;;24.20;14.70;;;;;;;15.13;35.03;99337.81;4933686;29;20039;-79
2021/03/03 10:40:16;;;;;;;20.80;15.02;;;;;;;15.43;35.22;99342.19;4929051;29;20425;-84
2021/03/03 10:42:42;;;;;;;21.90;13.90;;;;;;;15.48;34.80;99326.44;4926516;29;20039;-84
2021/03/03 10:45:26;;;;;;;22.63;12.95;;;;;;;15.95;34.14;99339.38;4927225;29;20039;-81
2021/03/03 10:47:52;;;;;;;19.75;14.02;;;;;;;17.00;32.88;99330.59;4926264;29;20031;-81
2021/03/03 10:50:20;;;;;;;17.95;12.25;;;;;;;16.30;34.27;99337.22;4928327;29;20024;-81
2021/03/03 10:53:02;;;;;;;24.08;14.68;;;;;;;15.78;34.88;99322.50;4928126;29;20140;-87
2021/03/03 10:55:34;;;;;;;20.48;13.00;;;;;;;16.65;33.71;99322.06;4928561;29;20032;-80
2021/03/03 10:58:04;;;;;;;29.05;13.68;;;;;;;16.07;34.05;99312.16;4935498;29;20039;-82
2021/03/03 11:00:30;;;;;;;20.42;12.82;;;;;;;16.11;34.18;99301.34;4932227;29;20024;-82
2021/03/03 11:03:05;;;;;;;27.60;14.27;;;;;;;16.42;33.50;99305.28;4931506;29;20028;-86
2021/03/03 11:05:31;;;;;;;20.15;11.98;;;;;;;15.99;34.01;99282.47;4932000;29;20028;-86
2021/03/03 11:07:58;;;;;;;23.98;13.80;;;;;;;17.02;33.61;99297.94;4947006;29;20023;-81
2021/03/03 11:10:23;;;;;;;22.98;12.27;;;;;;;17.24;32.06;99279.81;4951011;29;20008;-83
2021/03/03 11:12:49;;;;;;;18.42;12.23;;;;;;;17.18;31.70;99270.00;4945844;29;20069;-83
2021/03/03 11:15:16;;;;;;;19.15;12.32;;;;;;;17.09;32.20;99262.41;4947074;29;20388;-82
2021/03/03 11:17:42;;;;;;;19.35;12.25;;;;;;;16.68;32.74;99261.50;4947025;29;20028;-81
2021/03/03 11:20:08;;;;;;;21.30;12.07;;;;;;;16.38;33.18;99260.03;4950835;29;20028;-81
2021/03/03 11:22:37;;;;;;;18.92;12.35;;;;;;;15.93;33.67;99250.53;4958028;29;20024;-85
2021/03/03 11:25:04;;;;;;;18.70;11.98;;;;;;;15.53;34.45;99251.09;4958021;29;20036;-87
2021/03/03 11:27:31;;;;;;;28.13;14.25;;;;;;;16.90;32.53;99247.03;4953937;29;20027;-87
2021/03/03 11:29:57;;;;;;;21.20;12.18;;;;;;;16.34;33.02;99227.81;4954946;29;20039;-86
2021/03/03 11:32:22;;;;;;;18.50;12.13;;;;;;;15.02;35.16;99226.88;4953739;28;20042;-88
2021/03/03 11:34:48;;;;;;;18.77;11.88;;;;;;;14.40;36.75;99229.72;4966339;28;20023;-90
2021/03/03 11:37:15;;;;;;;18.95;13.18;;;;;;;13.95;38.14;99226.19;4962553;28;20027;-92
2021/03/03 11:39:41;;;;;;;19.95;11.93;;;;;;;13.39;38.90;99205.63;4961332;28;20035;-83
2021/03/03 11:42:06;;;;;;;19.75;13.25;;;;;;;13.50;39.04;99207.19;4958559;28;20019;-85
2021/03/03 11:44:31;;;;;;;20.90;12.80;;;;;;;13.06;39.45;99211.78;4958832;28;20428;-87
2021/03/03 11:46:57;;;;;;;17.20;11.35;;;;;;;13.05;39.39;99199.16;4959138;28;20031;-85
2021/03/03 11:49:22;;;;;;;21.33;12.35;;;;;;;13.02;39.15;99194.22;4961313;28;20039;-91
2021/03/03 11:51:48;;;;;;;21.00;11.82;;;;;;;13.30;38.81;99190.84;4961761;28;20027;-93
2021/03/03 11:54:13;;;;;;;18.55;11.60;;;;;;;13.35;38.69;99179.81;4960680;28;20740;-82